Time;durP1;ratioP1;P1;durP2;ratioP2;P2;SDS_P1;SDS_P2;PMS_P1;PMS_P2;Temp;Humidity;BMP_temperature;BMP_pressure;BME280_temperature;BME280_humidity;BME280_pressure;Samples;Min_cycle;Max_cycle;Signal;HPM_P1;HPM_P2
2023/01/09 00:01:01;;;;;;;14.77;8.63;;;4.90;99.90;;;;;;7582907;19;20018;-74
2023/01/09 00:03:33;;;;;;;15.10;8.35;;;4.90;99.90;;;;;;7587170;19;20041;-74
2023/01/09 00:06:06;;;;;;;12.52;8.52;;;4.90;99.90;;;;;;7596651;19;21373;-75
2023/01/09 00:08:38;;;;;;;15.43;9.05;;;5.00;99.90;;;;;;7591603;19;20021;-72
2023/01/09 00:11:10;;;;;;;11.57;8.25;;;5.00;99.90;;;;;;7585906;19;20105;-74
2023/01/09 00:13:42;;;;;;;17.48;8.85;;;5.00;99.90;;;;;;7583442;19;20018;-73
2023/01/09 00:16:15;;;;;;;15.63;9.77;;;4.90;99.90;;;;;;7543684;19;20074;-73
2023/01/09 00:18:47;;;;;;;15.70;9.17;;;4.90;99.90;;;;;;7548634;19;20902;-73
2023/01/09 00:21:20;;;;;;;16.95;9.05;;;4.90;99.90;;;;;;7527542;19;20395;-74
2023/01/09 00:23:53;;;;;;;17.05;9.32;;;4.90;99.90;;;;;;7545213;19;20743;-74
2023/01/09 00:26:25;;;;;;;14.70;8.67;;;4.80;99.90;;;;;;7581013;19;20024;-75
2023/01/09 00:28:57;;;;;;;14.52;8.52;;;4.80;99.90;;;;;;7587858;19;20286;-75
2023/01/09 00:31:30;;;;;;;13.45;8.75;;;4.80;99.90;;;;;;7585290;19;20019;-75
2023/01/09 00:34:06;;;;;;;12.07;8.40;;;4.80;99.90;;;;;;7580645;19;20038;-75
2023/01/09 00:36:38;;;;;;;14.15;8.43;;;4.80;99.90;;;;;;7594727;19;20026;-74
2023/01/09 00:39:10;;;;;;;10.73;7.80;;;4.80;99.90;;;;;;7586394;19;20032;-73
2023/01/09 00:41:46;;;;;;;11.93;7.63;;;4.80;99.90;;;;;;7589123;19;20416;-75
2023/01/09 00:44:41;;;;;;;12.68;8.00;;;4.80;99.90;;;;;;7585248;19;20049;-74
2023/01/09 00:47:21;;;;;;;13.43;8.15;;;4.90;99.90;;;;;;7586529;19;20037;-74
2023/01/09 00:49:57;;;;;;;14.25;9.70;;;4.90;99.90;;;;;;7593587;19;20014;-74
2023/01/09 00:52:31;;;;;;;17.30;8.60;;;5.00;99.90;;;;;;7591123;19;20021;-74
2023/01/09 00:55:04;;;;;;;12.75;7.80;;;5.00;99.90;;;;;;7578896;19;20014;-73
2023/01/09 00:57:37;;;;;;;12.40;7.70;;;5.10;99.90;;;;;;7594839;19;20019;-73
2023/01/09 01:00:11;;;;;;;12.45;7.53;;;5.10;99.90;;;;;;7580292;19;20058;-74
2023/01/09 01:02:43;;;;;;;10.27;7.07;;;5.10;99.90;;;;;;7587602;19;20509;-75
2023/01/09 01:08:15;;;;;;;15.85;11.10;;;5.10;99.90;;;;;;7592485;19;20034;-74
2023/01/09 01:10:48;;;;;;;12.68;8.40;;;5.20;99.90;;;;;;7595154;19;20109;-74
2023/01/09 01:13:20;;;;;;;18.60;12.80;;;5.30;99.90;;;;;;7596259;19;20028;-75
2023/01/09 01:15:52;;;;;;;20.52;16.77;;;5.20;99.90;;;;;;7556886;19;20295;-74
2023/01/09 01:18:24;;;;;;;11.30;7.38;;;5.20;99.90;;;;;;7585209;19;20022;-75
2023/01/09 01:20:56;;;;;;;10.32;6.75;;;5.30;99.90;;;;;;7566499;19;20014;-75
2023/01/09 01:23:28;;;;;;;8.77;5.70;;;5.30;99.90;;;;;;7580896;19;20023;-74
2023/01/09 01:26:12;;;;;;;9.82;5.90;;;5.30;99.90;;;;;;7596766;19;20057;-75
2023/01/09 01:28:44;;;;;;;8.75;5.85;;;5.30;99.90;;;;;;7595328;19;20033;-73
2023/01/09 01:31:18;;;;;;;11.48;6.13;;;5.30;99.90;;;;;;7591961;19;20025;-74
2023/01/09 01:33:50;;;;;;;9.85;5.63;;;5.40;99.90;;;;;;7580856;19;20602;-75
2023/01/09 01:36:25;;;;;;;11.10;6.80;;;5.30;99.90;;;;;;7598360;19;20033;-75
2023/01/09 01:38:57;;;;;;;12.35;6.50;;;5.30;99.90;;;;;;7573950;19;20014;-75
2023/01/09 01:41:29;;;;;;;8.23;5.70;;;5.30;99.90;;;;;;7590813;19;20779;-74
2023/01/09 01:44:05;;;;;;;8.57;5.75;;;5.30;99.90;;;;;;7587144;19;20469;-75
2023/01/09 01:46:37;;;;;;;11.57;6.50;;;5.20;99.90;;;;;;7588062;19;20427;-75
2023/01/09 01:49:14;;;;;;;11.88;6.70;;;5.30;99.90;;;;;;7573253;19;20027;-74
2023/01/09 01:51:50;;;;;;;10.65;7.00;;;5.20;99.90;;;;;;7582098;19;20018;-75
2023/01/09 01:54:27;;;;;;;8.70;6.13;;;5.20;99.90;;;;;;7582929;19;20019;-75
2023/01/09 01:57:02;;;;;;;13.43;7.15;;;5.20;99.90;;;;;;7594174;19;20019;-74
2023/01/09 01:59:48;;;;;;;11.25;6.20;;;5.20;99.90;;;;;;7594227;19;20026;-75
2023/01/09 02:02:26;;;;;;;11.25;5.85;;;5.30;99.90;;;;;;7575563;19;20022;-75
2023/01/09 02:05:00;;;;;;;9.05;5.50;;;5.20;99.90;;;;;;7582366;19;20462;-75
2023/01/09 02:07:33;;;;;;;12.40;6.18;;;5.30;99.90;;;;;;7583275;19;20014;-75
2023/01/09 02:10:06;;;;;;;10.55;6.65;;;5.20;99.90;;;;;;7583083;19;20022;-75
2023/01/09 02:12:38;;;;;;;9.57;5.87;;;5.20;99.90;;;;;;7579438;19;20014;-74
2023/01/09 02:15:13;;;;;;;12.43;6.35;;;5.10;99.90;;;;;;7586211;19;20023;-75
2023/01/09 02:18:07;;;;;;;9.52;6.03;;;5.10;99.90;;;;;;7580495;19;20031;-75
2023/01/09 02:20:46;;;;;;;8.95;6.38;;;5.10;99.90;;;;;;7574778;19;20015;-74
2023/01/09 02:23:45;;;;;;;11.23;6.65;;;5.10;99.90;;;;;;7589626;19;20120;-75
2023/01/09 02:26:45;;;;;;;9.95;6.10;;;5.20;99.90;;;;;;7575411;19;22227;-74
2023/01/09 02:29:36;;;;;;;10.10;6.43;;;5.20;99.90;;;;;;7581366;19;20086;-74
2023/01/09 02:32:27;;;;;;;10.90;6.60;;;5.10;99.90;;;;;;7579918;19;20017;-75
2023/01/09 02:35:17;;;;;;;9.88;6.15;;;5.20;99.90;;;;;;7578020;19;20018;-75
2023/01/09 02:38:07;;;;;;;10.25;6.78;;;5.20;99.90;;;;;;7578443;19;20018;-75
2023/01/09 02:40:54;;;;;;;11.90;7.07;;;5.20;99.90;;;;;;7588055;19;20030;-75
2023/01/09 02:43:26;;;;;;;10.63;6.40;;;5.20;99.90;;;;;;7591639;19;20029;-73
2023/01/09 02:45:59;;;;;;;12.80;6.90;;;5.30;99.90;;;;;;7569572;19;20045;-75
2023/01/09 02:48:31;;;;;;;10.88;6.95;;;5.30;99.90;;;;;;7568637;19;20130;-74
2023/01/09 02:51:13;;;;;;;11.77;6.80;;;5.30;99.90;;;;;;7574681;19;20104;-74
2023/01/09 02:54:12;;;;;;;11.40;6.70;;;5.40;99.90;;;;;;7579679;19;20034;-74
2023/01/09 02:57:14;;;;;;;9.70;6.38;;;5.40;99.90;;;;;;7581291;19;20018;-74
2023/01/09 03:00:07;;;;;;;12.45;7.22;;;5.40;99.90;;;;;;7585448;19;20036;-75
2023/01/09 03:02:51;;;;;;;13.77;8.38;;;5.40;99.90;;;;;;7577933;19;20038;-75
2023/01/09 03:05:30;;;;;;;;;;;5.30;99.90;;;;;;7583973;19;20018;-73
2023/01/09 03:08:26;;;;;;;9.65;6.18;;;5.40;99.90;;;;;;7581341;19;20804;-75
2023/01/09 03:11:05;;;;;;;12.95;6.28;;;5.30;99.90;;;;;;7574864;19;20019;-74
2023/01/09 03:13:54;;;;;;;10.98;7.15;;;5.40;99.90;;;;;;7579934;19;20023;-74
2023/01/09 03:16:31;;;;;;;9.15;6.05;;;5.20;99.90;;;;;;7581348;19;20646;-74
2023/01/09 03:19:11;;;;;;;11.32;6.97;;;5.20;99.90;;;;;;7589106;19;20018;-75
2023/01/09 03:21:45;;;;;;;11.98;6.85;;;5.20;99.90;;;;;;7584241;19;21030;-74
2023/01/09 03:24:17;;;;;;;16.08;8.45;;;5.20;99.90;;;;;;7589893;19;20019;-75
2023/01/09 03:26:50;;;;;;;13.20;8.30;;;5.30;99.90;;;;;;7591154;19;22492;-75
2023/01/09 03:29:22;;;;;;;15.13;8.02;;;5.30;99.90;;;;;;7598348;19;20018;-74
2023/01/09 03:31:55;;;;;;;10.07;6.15;;;5.20;99.90;;;;;;7567083;19;20509;-75
2023/01/09 03:34:27;;;;;;;14.50;7.82;;;5.20;99.90;;;;;;7594637;19;20010;-74
2023/01/09 03:36:59;;;;;;;11.27;6.72;;;5.20;99.90;;;;;;7585905;19;20110;-74
2023/01/09 03:39:31;;;;;;;12.15;6.85;;;5.10;99.90;;;;;;7594336;19;20145;-74
2023/01/09 03:42:04;;;;;;;12.57;6.75;;;5.20;99.90;;;;;;7590238;19;20726;-75
2023/01/09 03:44:36;;;;;;;9.32;6.18;;;5.20;99.90;;;;;;7586782;19;20489;-75
2023/01/09 03:47:08;;;;;;;11.70;7.25;;;5.10;99.90;;;;;;7565670;19;20039;-74
2023/01/09 03:49:40;;;;;;;12.95;6.85;;;5.10;99.90;;;;;;7597048;19;20493;-74
2023/01/09 03:52:13;;;;;;;9.50;6.10;;;5.10;99.90;;;;;;7586816;19;21002;-74
2023/01/09 03:54:45;;;;;;;9.50;6.20;;;5.20;99.90;;;;;;7590721;19;20114;-75
2023/01/09 03:57:17;;;;;;;10.70;6.65;;;5.10;99.90;;;;;;7601213;19;21049;-75
2023/01/09 03:59:49;;;;;;;9.82;7.05;;;5.10;99.90;;;;;;7603604;19;20014;-76
2023/01/09 04:02:21;;;;;;;9.82;7.03;;;5.10;99.90;;;;;;7581429;19;20683;-75
2023/01/09 04:04:53;;;;;;;11.57;7.35;;;5.10;99.90;;;;;;7588874;19;20653;-74
2023/01/09 04:07:25;;;;;;;9.68;6.95;;;5.10;99.90;;;;;;7584392;19;20019;-74
2023/01/09 04:09:57;;;;;;;11.98;6.88;;;5.10;99.90;;;;;;7589759;19;20090;-74
2023/01/09 04:12:30;;;;;;;10.52;7.65;;;5.00;99.90;;;;;;7593160;19;20509;-74
2023/01/09 04:15:02;;;;;;;15.18;9.38;;;5.10;99.90;;;;;;7591160;19;20026;-74
2023/01/09 04:17:34;;;;;;;17.80;7.15;;;5.10;99.90;;;;;;7584611;19;20015;-74
2023/01/09 04:20:07;;;;;;;11.10;6.15;;;5.10;99.90;;;;;;7565714;19;20474;-74
2023/01/09 04:22:39;;;;;;;14.45;6.70;;;5.10;99.90;;;;;;7570547;19;20150;-74
2023/01/09 04:25:12;;;;;;;11.75;7.20;;;5.10;99.90;;;;;;7559810;19;20014;-74
2023/01/09 04:27:44;;;;;;;13.20;6.47;;;5.10;99.90;;;;;;7592315;19;20053;-74
2023/01/09 04:30:19;;;;;;;12.10;6.05;;;5.10;99.90;;;;;;7582611;19;20010;-73
2023/01/09 04:32:51;;;;;;;9.30;4.93;;;5.10;99.90;;;;;;7572971;19;20403;-73
2023/01/09 04:35:23;;;;;;;9.82;6.10;;;5.20;99.90;;;;;;7586507;19;20029;-73
2023/01/09 04:37:55;;;;;;;8.93;5.47;;;5.20;99.90;;;;;;7562107;19;20029;-75
2023/01/09 04:40:27;;;;;;;8.27;4.82;;;5.30;99.90;;;;;;7588137;19;20025;-75
2023/01/09 04:42:59;;;;;;;7.22;4.93;;;5.40;99.90;;;;;;7569622;19;20018;-74
2023/01/09 04:45:31;;;;;;;8.75;4.65;;;5.40;99.90;;;;;;7574718;19;20018;-74
2023/01/09 04:48:05;;;;;;;8.15;4.22;;;5.60;99.90;;;;;;7570795;19;20018;-74
2023/01/09 04:50:37;;;;;;;6.68;4.38;;;5.60;99.90;;;;;;7590952;19;20033;-75
2023/01/09 04:53:09;;;;;;;5.28;3.03;;;5.60;99.90;;;;;;7579044;19;20026;-75
2023/01/09 04:55:41;;;;;;;6.07;3.40;;;5.70;99.90;;;;;;7587568;19;20376;-75
2023/01/09 04:58:13;;;;;;;7.47;3.40;;;5.70;99.90;;;;;;7585509;19;20090;-74
2023/01/09 05:00:46;;;;;;;5.85;3.17;;;5.90;99.90;;;;;;7554053;19;20058;-75
2023/01/09 05:03:18;;;;;;;3.42;2.90;;;5.80;99.90;;;;;;7551721;19;20068;-75
2023/01/09 05:05:50;;;;;;;4.43;3.00;;;5.90;99.90;;;;;;7566371;19;20028;-74
2023/01/09 05:08:22;;;;;;;5.78;3.50;;;6.00;99.90;;;;;;7576021;19;20052;-74
2023/01/09 05:10:54;;;;;;;4.53;2.60;;;6.10;99.90;;;;;;7572687;19;21026;-76
2023/01/09 05:13:27;;;;;;;6.07;3.58;;;6.10;99.90;;;;;;7552673;19;20015;-74
2023/01/09 05:15:59;;;;;;;3.30;2.30;;;6.10;99.90;;;;;;7561428;19;21081;-74
2023/01/09 05:18:31;;;;;;;6.18;3.03;;;6.20;99.90;;;;;;7587982;19;21015;-74
2023/01/09 05:21:03;;;;;;;10.20;3.85;;;6.20;99.90;;;;;;7580394;19;20387;-74
2023/01/09 05:23:36;;;;;;;5.95;3.05;;;6.30;99.90;;;;;;7590828;19;20668;-75
2023/01/09 05:26:08;;;;;;;5.25;3.30;;;6.30;99.90;;;;;;7567396;19;20021;-74
2023/01/09 05:28:40;;;;;;;5.22;3.13;;;6.30;99.90;;;;;;7553632;19;21211;-75
2023/01/09 05:31:13;;;;;;;5.00;2.77;;;6.40;99.90;;;;;;7572979;19;20030;-74
2023/01/09 05:33:45;;;;;;;4.00;2.33;;;6.50;99.90;;;;;;7576869;19;20511;-75
2023/01/09 05:36:18;;;;;;;3.50;1.92;;;6.60;99.90;;;;;;7580395;19;20032;-74
2023/01/09 05:38:51;;;;;;;2.47;1.63;;;6.70;99.90;;;;;;7566003;19;20639;-74
2023/01/09 05:41:25;;;;;;;3.58;1.92;;;6.70;99.90;;;;;;7556804;19;20941;-75
2023/01/09 05:43:57;;;;;;;4.00;1.98;;;6.80;99.90;;;;;;7569433;19;20021;-74
2023/01/09 05:46:30;;;;;;;17.55;6.60;;;6.90;99.90;;;;;;7575948;19;20993;-75
2023/01/09 05:49:03;;;;;;;16.60;6.93;;;6.90;99.90;;;;;;7569672;19;20011;-73
2023/01/09 05:51:35;;;;;;;4.25;1.95;;;7.00;99.90;;;;;;7578979;19;20035;-76
2023/01/09 05:54:07;;;;;;;5.95;2.55;;;7.00;99.90;;;;;;7581928;19;20082;-74
2023/01/09 05:56:39;;;;;;;3.40;1.88;;;7.00;99.90;;;;;;7543680;19;20019;-74
2023/01/09 05:59:11;;;;;;;1.50;0.90;;;7.10;99.90;;;;;;7532706;19;20010;-74
2023/01/09 06:01:44;;;;;;;1.55;0.77;;;7.10;99.90;;;;;;7526218;19;20571;-73
2023/01/09 06:04:16;;;;;;;3.08;1.30;;;7.10;99.90;;;;;;7557263;19;20015;-75
2023/01/09 06:06:48;;;;;;;1.90;1.15;;;7.10;99.90;;;;;;7539698;19;20017;-75
2023/01/09 06:09:20;;;;;;;2.05;1.25;;;7.00;99.90;;;;;;7556931;19;21184;-76
2023/01/09 06:11:53;;;;;;;3.50;1.98;;;7.00;99.90;;;;;;7565425;19;20023;-75
2023/01/09 06:14:25;;;;;;;;;;;7.00;99.90;;;;;;7546466;19;20011;-75
2023/01/09 06:16:58;;;;;;;1.60;0.88;;;7.00;99.90;;;;;;7533319;19;19930;-76
2023/01/09 06:19:30;;;;;;;1.67;1.13;;;7.00;99.90;;;;;;7545222;19;20656;-75
2023/01/09 06:22:03;;;;;;;1.70;1.30;;;7.00;99.90;;;;;;7559499;19;21170;-76
2023/01/09 06:24:35;;;;;;;0.65;0.60;;;7.10;99.90;;;;;;7546908;19;20021;-75
2023/01/09 06:27:07;;;;;;;0.77;0.40;;;7.00;99.90;;;;;;7545998;19;20018;-76
2023/01/09 06:29:39;;;;;;;0.63;0.50;;;6.90;99.90;;;;;;7544808;19;20102;-76
2023/01/09 06:32:12;;;;;;;0.77;0.50;;;7.00;99.90;;;;;;7479318;19;20769;-75
2023/01/09 06:34:44;;;;;;;1.25;0.70;;;7.00;99.90;;;;;;7534283;19;20097;-75
2023/01/09 06:37:16;;;;;;;1.00;0.70;;;7.00;99.90;;;;;;7532911;19;20026;-76
2023/01/09 06:39:48;;;;;;;2.03;1.17;;;7.00;99.90;;;;;;7539244;19;20048;-76
2023/01/09 06:42:21;;;;;;;2.13;1.15;;;7.00;99.90;;;;;;7554619;19;20033;-75
2023/01/09 06:44:53;;;;;;;1.08;0.80;;;7.00;99.90;;;;;;7579441;19;20078;-76
2023/01/09 06:47:25;;;;;;;1.30;0.82;;;6.90;99.90;;;;;;7556171;19;20025;-75
2023/01/09 06:49:57;;;;;;;2.00;1.17;;;6.70;99.90;;;;;;7583310;19;20022;-76
2023/01/09 06:52:29;;;;;;;1.30;1.00;;;6.70;99.90;;;;;;7585089;19;20011;-76
2023/01/09 06:55:02;;;;;;;1.48;0.77;;;6.70;99.90;;;;;;7594208;19;20023;-76
2023/01/09 06:57:34;;;;;;;1.17;0.63;;;6.70;99.90;;;;;;7594219;19;20125;-75
2023/01/09 07:00:11;;;;;;;0.60;0.60;;;6.60;99.90;;;;;;7610292;19;20030;-76
2023/01/09 07:02:45;;;;;;;0.40;0.40;;;6.60;99.90;;;;;;7617998;19;20014;-75
2023/01/09 07:05:17;;;;;;;;;;;6.70;99.90;;;;;;7601918;19;20031;-75
2023/01/09 07:07:49;;;;;;;0.68;0.68;;;6.60;99.90;;;;;;7587914;19;19926;-75
2023/01/09 07:10:22;;;;;;;0.75;0.40;;;6.60;99.90;;;;;;7572758;19;20022;-76
2023/01/09 07:12:55;;;;;;;0.60;0.60;;;6.60;99.90;;;;;;7565908;19;20030;-75
2023/01/09 07:15:27;;;;;;;0.60;0.60;;;6.60;99.90;;;;;;7584157;19;20148;-76
2023/01/09 07:17:59;;;;;;;1.45;0.77;;;6.70;99.90;;;;;;7565536;19;20094;-75
2023/01/09 07:20:32;;;;;;;0.90;0.80;;;6.60;99.90;;;;;;7580651;19;20018;-76
2023/01/09 07:23:04;;;;;;;0.60;0.60;;;6.60;99.90;;;;;;7579292;19;20478;-75
2023/01/09 07:25:36;;;;;;;0.60;0.60;;;6.60;99.90;;;;;;7593245;19;20032;-75
2023/01/09 07:28:08;;;;;;;0.60;0.60;;;6.60;99.90;;;;;;7585619;19;20016;-75
2023/01/09 07:30:40;;;;;;;0.40;0.40;;;6.60;99.90;;;;;;7588697;19;20427;-76
2023/01/09 07:33:12;;;;;;;0.40;0.40;;;6.60;99.90;;;;;;7577217;19;20019;-74
2023/01/09 07:35:45;;;;;;;0.47;0.47;;;6.50;99.90;;;;;;7579272;19;20014;-75
2023/01/09 07:38:17;;;;;;;0.47;0.47;;;6.50;99.90;;;;;;7578381;19;20023;-75
2023/01/09 07:40:50;;;;;;;0.40;0.32;;;6.60;99.90;;;;;;7577461;19;20024;-75
2023/01/09 07:43:22;;;;;;;0.60;0.57;;;6.60;99.90;;;;;;7581951;19;20454;-75
2023/01/09 07:45:54;;;;;;;0.40;0.40;;;6.60;99.90;;;;;;7587101;19;20016;-76
2023/01/09 07:48:27;;;;;;;2.50;0.40;;;6.60;99.90;;;;;;7567092;19;20073;-76
2023/01/09 07:50:59;;;;;;;1.38;0.40;;;6.60;99.90;;;;;;7576602;19;20482;-76
2023/01/09 07:53:32;;;;;;;0.55;0.47;;;6.60;99.90;;;;;;7587592;19;20630;-75
2023/01/09 07:56:04;;;;;;;0.57;0.57;;;6.50;99.90;;;;;;7583897;19;20019;-74
2023/01/09 07:58:37;;;;;;;0.43;0.43;;;6.50;99.90;;;;;;7587471;19;20010;-75
2023/01/09 08:01:10;;;;;;;0.85;0.60;;;6.50;99.90;;;;;;7544703;19;20064;-75
2023/01/09 08:03:42;;;;;;;1.38;0.43;;;6.60;99.90;;;;;;7576959;19;20648;-74
2023/01/09 08:06:14;;;;;;;2.00;0.60;;;6.50;99.90;;;;;;7595504;19;20047;-75
2023/01/09 08:08:47;;;;;;;0.50;0.50;;;6.50;99.90;;;;;;7592268;19;20698;-75
2023/01/09 08:11:19;;;;;;;0.50;0.50;;;6.50;99.90;;;;;;7607476;19;20014;-75
2023/01/09 08:13:51;;;;;;;0.65;0.50;;;6.50;99.90;;;;;;7584047;19;20033;-74
2023/01/09 08:16:24;;;;;;;0.68;0.50;;;6.50;99.90;;;;;;7576572;19;20043;-75
2023/01/09 08:18:56;;;;;;;0.47;0.47;;;6.60;99.90;;;;;;7592542;19;20482;-74
2023/01/09 08:21:28;;;;;;;0.50;0.50;;;6.60;99.90;;;;;;7585138;19;20015;-74
2023/01/09 08:24:00;;;;;;;0.57;0.45;;;6.50;99.90;;;;;;7578427;19;21106;-74
2023/01/09 08:26:33;;;;;;;1.03;0.63;;;6.50;99.90;;;;;;7562453;19;20061;-75
2023/01/09 08:29:05;;;;;;;0.80;0.60;;;6.50;99.90;;;;;;7570082;19;20281;-75
2023/01/09 08:31:37;;;;;;;0.50;0.50;;;6.40;99.90;;;;;;7573965;19;20816;-75
2023/01/09 08:34:09;;;;;;;0.95;0.55;;;6.50;99.90;;;;;;7566534;19;20022;-74
2023/01/09 08:36:41;;;;;;;1.27;0.60;;;6.40;99.90;;;;;;7575142;19;20033;-75
2023/01/09 08:39:14;;;;;;;1.55;0.90;;;6.40;99.90;;;;;;7582725;19;20514;-73
2023/01/09 08:47:32;;;;;;;0.60;0.60;;;6.40;99.90;;;;;;7574003;19;20437;-75
2023/01/09 08:50:04;;;;;;;2.50;0.90;;;6.40;99.90;;;;;;7601214;19;20026;-76
2023/01/09 08:52:36;;;;;;;1.30;0.70;;;6.30;99.90;;;;;;7606811;19;20105;-75
2023/01/09 08:55:08;;;;;;;2.08;0.80;;;6.30;99.90;;;;;;7597479;19;20014;-75
2023/01/09 08:57:51;;;;;;;0.60;0.60;;;6.30;98.80;;;;;;7594212;19;20939;-75
2023/01/09 09:00:24;;;;;;;1.13;0.60;;;6.30;99.50;;;;;;7601956;19;20873;-75
2023/01/09 09:02:57;;;;;;;1.35;0.63;;;6.30;97.80;;;;;;7592643;19;20051;-75
2023/01/09 09:05:31;;;;;;;0.55;0.50;;;6.20;96.60;;;;;;7602362;19;20015;-75
2023/01/09 09:08:05;;;;;;;0.63;0.60;;;6.30;96.10;;;;;;7581679;19;20021;-74
2023/01/09 09:10:37;;;;;;;1.50;0.88;;;6.30;95.90;;;;;;7597943;19;20909;-74
2023/01/09 09:13:09;;;;;;;1.67;0.60;;;6.30;95.90;;;;;;7602551;19;20018;-75
2023/01/09 09:15:41;;;;;;;1.90;0.70;;;6.30;95.80;;;;;;7608842;19;20043;-74
2023/01/09 09:18:14;;;;;;;0.82;0.50;;;6.30;95.10;;;;;;7602397;19;20018;-75
2023/01/09 09:20:46;;;;;;;1.38;0.65;;;6.30;94.60;;;;;;7605392;19;20018;-76
2023/01/09 09:23:18;;;;;;;6.05;1.05;;;6.20;94.00;;;;;;7584313;19;20027;-75
2023/01/09 09:25:50;;;;;;;1.38;0.65;;;6.20;94.10;;;;;;7588798;19;20017;-75
2023/01/09 09:28:22;;;;;;;1.23;0.65;;;6.20;93.80;;;;;;7591606;19;21101;-75
2023/01/09 09:30:54;;;;;;;3.05;1.30;;;6.30;93.20;;;;;;7591179;19;20434;-74
2023/01/09 09:33:26;;;;;;;2.58;1.40;;;6.30;92.60;;;;;;7593303;19;20595;-75
2023/01/09 09:35:59;;;;;;;4.03;1.25;;;6.30;93.30;;;;;;7595040;19;20015;-75
2023/01/09 09:38:31;;;;;;;8.77;2.30;;;6.40;92.40;;;;;;7573308;19;20052;-75
2023/01/09 09:44:45;;;;;;;5.63;2.42;;;6.40;91.80;;;;;;7588054;19;20106;-75
2023/01/09 09:47:46;;;;;;;5.50;2.30;;;6.40;92.30;;;;;;7587712;19;20025;-77
2023/01/09 09:50:37;;;;;;;5.32;2.50;;;6.50;92.20;;;;;;7595505;19;20011;-74
2023/01/09 09:53:30;;;;;;;5.25;2.40;;;6.50;92.20;;;;;;7590089;19;20645;-74
2023/01/09 09:56:04;;;;;;;3.70;0.98;;;6.50;92.40;;;;;;7582622;19;20078;-75
2023/01/09 09:58:43;;;;;;;3.00;1.08;;;6.50;92.40;;;;;;7589848;19;20014;-75
2023/01/09 10:01:21;;;;;;;5.38;1.63;;;6.40;91.80;;;;;;7600336;19;20094;-75
2023/01/09 10:04:00;;;;;;;2.80;1.45;;;6.50;91.70;;;;;;7594297;19;20039;-75
2023/01/09 10:06:40;;;;;;;5.20;1.60;;;6.60;91.30;;;;;;7596331;19;20493;-76
2023/01/09 10:09:12;;;;;;;1.45;0.85;;;6.50;91.50;;;;;;7596887;19;20014;-76
2023/01/09 10:11:48;;;;;;;2.10;1.05;;;6.50;91.30;;;;;;7592915;19;20037;-76
2023/01/09 10:14:22;;;;;;;2.67;1.60;;;6.50;91.80;;;;;;7581017;19;20351;-76
2023/01/09 10:17:18;;;;;;;2.47;1.10;;;6.60;91.50;;;;;;7581829;19;21429;-77
2023/01/09 10:20:02;;;;;;;6.65;1.15;;;6.60;91.20;;;;;;7582200;19;20035;-76
2023/01/09 10:23:01;;;;;;;3.25;1.50;;;6.60;91.60;;;;;;7586937;19;20109;-74
2023/01/09 10:26:15;;;;;;;5.10;1.60;;;6.60;91.60;;;;;;7556936;19;20527;-76
